This is the latest recevied weather packets stored in our database for station/object 9M4GEK-3. If no packets are shown the sender has not sent any weather packets the latest 10 day(s).
| Time | Temp. | Humidity | Pressure | Rain* | Wind** | Luminosity | Snow |
|---|---|---|---|---|---|---|---|
| 1777869583 | 41.67° C | 37% | 1010 hPa | - | - | - | - |
| 1777869564 | 36.67° C | 45% | 1009.9 hPa | - | - | - | - |
| 1777868664 | 41.67° C | 37% | 1010 hPa | - | - | - | - |
| 1777867976 | 43.89° C | 35% | 1010.1 hPa | - | - | - | - |
| 1777867770 | 43.89° C | 35% | 1010.1 hPa | - | - | - | - |
| 1777866865 | 42.78° C | 38% | 1010.3 hPa | - | - | - | - |
| 1777865064 | 41.11° C | 42% | 1010.2 hPa | - | - | - | - |
| 1777843458 | 25.56° C | 83% | 1007.2 hPa | - | - | - | - |
| 1777840758 | 25.56° C | 82% | 1007.3 hPa | - | - | - | - |
| 1777838958 | 25.56° C | 83% | 1007.3 hPa | - | - | - | - |
| 1777838058 | 25.56° C | 83% | 1007.5 hPa | - | - | - | - |
| 1777837158 | 25.56° C | 83% | 1007.7 hPa | - | - | - | - |
| 1777834456 | 26.11° C | 81% | 1008.4 hPa | - | - | - | - |
| 1777829727 | 26.11° C | 80% | 1008.5 hPa | - | - | - | - |
| 1777827026 | 26.11° C | 79% | 1009.1 hPa | - | - | - | - |
| 1777825292 | 26.11° C | 79% | 1009.6 hPa | - | - | - | - |
| 1777825226 | 26.11° C | 79% | 1009.6 hPa | - | - | - | - |
| 1777823463 | 26.11° C | 79% | 1009.7 hPa | - | - | - | - |
| 1777821625 | 26.11° C | 79% | 1009.6 hPa | - | - | - | - |
| 1777818986 | 26.11° C | 79% | 1009.2 hPa | - | - | - | - |
| 1777818116 | 26.11° C | 79% | 1009.1 hPa | - | - | - | - |
| 1777817123 | 26.11° C | 78% | 1008.9 hPa | - | - | - | - |
| 1777816286 | 26.11° C | 78% | 1008.5 hPa | - | - | - | - |
| 1777815401 | 26.67° C | 78% | 1008.1 hPa | - | - | - | - |
| 1777815324 | 26.67° C | 78% | 1008.1 hPa | - | - | - | - |
* Rain since midnight (hover to see other rain measurements)
** Current wind speed in m/s (hover to see current wind gust speed)